Time;durP1;ratioP1;P1;durP2;ratioP2;P2;SDS_P1;SDS_P2;PMS_P1;PMS_P2;Temp;Humidity;BMP_temperature;BMP_pressure;BME280_temperature;BME280_humidity;BME280_pressure;Samples;Min_cycle;Max_cycle;Signal;HPM_P1;HPM_P2
2023/10/06 00:01:44;;;;;;;7.15;4.03;;;12.70;99.90;;;;;;4994255;28;20474;-87
2023/10/06 00:04:15;;;;;;;8.65;4.22;;;12.70;99.90;;;;;;4993769;28;20026;-86
2023/10/06 00:06:42;;;;;;;9.93;4.40;;;12.70;99.90;;;;;;5010205;28;20482;-87
2023/10/06 00:09:09;;;;;;;13.05;5.28;;;12.70;99.90;;;;;;4994673;28;20033;-86
2023/10/06 00:11:37;;;;;;;9.30;3.60;;;12.70;99.90;;;;;;4991975;28;20068;-87
2023/10/06 00:14:19;;;;;;;11.32;4.47;;;12.70;99.90;;;;;;4994466;28;20033;-86
2023/10/06 00:16:45;;;;;;;11.00;4.30;;;12.70;99.90;;;;;;4998801;28;20034;-86
2023/10/06 00:19:27;;;;;;;13.30;4.15;;;12.70;99.90;;;;;;4992440;28;20493;-86
2023/10/06 00:22:37;;;;;;;10.07;4.35;;;12.70;99.90;;;;;;5007354;28;20092;-86
2023/10/06 00:24:42;;;;;;;7.82;4.25;;;12.70;99.90;;;;;;5001208;28;20049;-87
2023/10/06 00:27:12;;;;;;;9.77;4.45;;;12.70;99.90;;;;;;5008675;28;20022;-87
2023/10/06 00:29:48;;;;;;;11.40;4.68;;;12.60;99.90;;;;;;4994468;28;20122;-87
2023/10/06 00:32:26;;;;;;;7.95;4.32;;;12.60;99.90;;;;;;4990842;28;20025;-86
2023/10/06 00:35:11;;;;;;;10.18;4.30;;;12.70;99.90;;;;;;4991223;28;20092;-86
2023/10/06 00:37:41;;;;;;;11.75;4.30;;;12.70;99.90;;;;;;4990353;28;20022;-87
2023/10/06 00:40:28;;;;;;;11.90;4.00;;;12.60;99.90;;;;;;4988676;28;20051;-87
2023/10/06 00:42:56;;;;;;;18.05;4.95;;;12.60;99.90;;;;;;5007648;28;20037;-87
2023/10/06 00:45:24;;;;;;;9.85;4.05;;;12.60;99.90;;;;;;5009318;28;20034;-87
2023/10/06 00:47:53;;;;;;;12.75;4.97;;;12.70;99.90;;;;;;5009392;28;20421;-87
2023/10/06 00:50:22;;;;;;;10.88;4.05;;;12.70;99.90;;;;;;5009891;28;20026;-87
2023/10/06 00:52:48;;;;;;;12.60;4.70;;;12.70;99.90;;;;;;4987745;28;20462;-87
2023/10/06 00:55:14;;;;;;;11.95;4.60;;;12.70;99.90;;;;;;4993203;28;20036;-87
2023/10/06 00:57:50;;;;;;;14.45;5.32;;;12.70;99.90;;;;;;5018942;28;20367;-87
2023/10/06 01:00:20;;;;;;;13.48;5.20;;;12.70;99.90;;;;;;5008029;28;20141;-86
2023/10/06 01:02:46;;;;;;;15.48;5.43;;;12.70;99.90;;;;;;4993282;28;20030;-87
2023/10/06 01:05:15;;;;;;;11.23;4.47;;;12.70;99.90;;;;;;4999756;28;20087;-87
2023/10/06 01:07:41;;;;;;;11.55;4.93;;;12.70;99.90;;;;;;4993112;28;20037;-87
2023/10/06 01:10:15;;;;;;;11.75;4.70;;;12.70;99.90;;;;;;5023659;28;20180;-86
2023/10/06 01:12:40;;;;;;;14.10;4.90;;;12.70;99.90;;;;;;4994557;28;20022;-86
2023/10/06 01:15:17;;;;;;;14.57;5.30;;;12.70;99.90;;;;;;4993745;28;20037;-86
2023/10/06 01:17:43;;;;;;;12.88;5.15;;;12.70;99.90;;;;;;4996375;28;20500;-86
2023/10/06 01:20:10;;;;;;;10.15;5.00;;;12.70;99.90;;;;;;4992641;28;20041;-86
2023/10/06 01:22:42;;;;;;;14.82;4.82;;;12.80;99.90;;;;;;5012122;28;20033;-86
2023/10/06 01:25:21;;;;;;;12.00;4.53;;;12.70;99.90;;;;;;4996492;28;20034;-86
2023/10/06 01:27:50;;;;;;;12.40;5.15;;;12.70;99.90;;;;;;4995391;28;20311;-86
2023/10/06 02:31:27;;;;;;;11.27;3.95;;;12.20;99.90;;;;;;4994412;28;20490;-87
2023/10/06 02:33:53;;;;;;;12.82;3.92;;;12.20;99.90;;;;;;4996948;28;20066;-87
2023/10/06 02:36:22;;;;;;;8.90;4.10;;;12.20;99.90;;;;;;4996153;28;20022;-87
2023/10/06 02:38:48;;;;;;;14.15;4.40;;;12.20;99.90;;;;;;4995593;28;20053;-87
2023/10/06 02:41:18;;;;;;;7.38;4.25;;;12.20;99.90;;;;;;4993821;28;20025;-86
2023/10/06 02:43:49;;;;;;;12.07;4.55;;;12.20;99.90;;;;;;4996659;28;20570;-86
2023/10/06 02:46:15;;;;;;;11.18;3.85;;;12.20;99.90;;;;;;4995421;28;20072;-87
2023/10/06 02:48:48;;;;;;;11.35;4.22;;;12.20;99.90;;;;;;4992846;28;20026;-87
2023/10/06 02:51:32;;;;;;;9.13;3.58;;;12.10;99.90;;;;;;4994017;28;20529;-86
2023/10/06 02:56:46;;;;;;;11.75;4.38;;;12.10;99.90;;;;;;5002633;28;20490;-86
2023/10/06 02:59:21;;;;;;;11.75;4.88;;;12.10;99.90;;;;;;5010910;28;20049;-87
2023/10/06 03:02:06;;;;;;;8.50;3.90;;;12.10;99.90;;;;;;4996256;28;20029;-86
2023/10/06 03:04:36;;;;;;;12.32;4.45;;;12.00;99.90;;;;;;4995223;28;20445;-87
2023/10/06 03:07:11;;;;;;;8.63;4.07;;;12.00;99.90;;;;;;4992461;28;20041;-86
2023/10/06 03:09:45;;;;;;;9.20;4.65;;;12.00;99.90;;;;;;4990843;28;20442;-86
2023/10/06 03:12:12;;;;;;;9.85;4.40;;;12.00;99.90;;;;;;4990452;28;20022;-86
2023/10/06 03:14:38;;;;;;;15.95;4.90;;;11.90;99.90;;;;;;4986521;28;20117;-87
2023/10/06 03:17:08;;;;;;;15.50;5.07;;;11.90;99.90;;;;;;4982700;28;20112;-87
2023/10/06 03:19:37;;;;;;;8.63;4.13;;;11.90;99.90;;;;;;4992432;28;20025;-87
2023/10/06 03:22:06;;;;;;;12.75;4.90;;;11.90;99.90;;;;;;4995422;28;20043;-86
2023/10/06 03:24:32;;;;;;;9.25;4.30;;;11.90;99.90;;;;;;4994383;28;20100;-86
2023/10/06 03:26:58;;;;;;;12.82;4.60;;;11.80;99.90;;;;;;4993208;28;20022;-87
2023/10/06 03:29:43;;;;;;;9.35;4.13;;;11.80;99.90;;;;;;4987909;28;20395;-87
2023/10/06 03:32:22;;;;;;;6.72;3.90;;;11.70;99.90;;;;;;4993921;28;20033;-87
2023/10/06 03:34:50;;;;;;;11.52;4.25;;;11.70;99.90;;;;;;4995245;28;20029;-85
2023/10/06 03:37:25;;;;;;;13.52;4.60;;;11.60;99.90;;;;;;4992190;28;20026;-86
2023/10/06 03:39:57;;;;;;;11.52;5.07;;;11.60;99.90;;;;;;5012661;28;20048;-86
2023/10/06 03:42:27;;;;;;;9.80;4.88;;;11.60;99.90;;;;;;4995410;28;20026;-86
2023/10/06 03:45:05;;;;;;;11.18;5.55;;;11.50;99.90;;;;;;4994600;28;20038;-86
2023/10/06 03:47:30;;;;;;;13.50;5.47;;;11.50;99.90;;;;;;4994972;28;20022;-86
2023/10/06 03:49:56;;;;;;;11.10;5.25;;;11.40;99.90;;;;;;4990628;28;20022;-86
2023/10/06 03:52:21;;;;;;;9.52;5.35;;;11.40;99.90;;;;;;4993507;28;20537;-85
2023/10/06 03:54:50;;;;;;;13.70;5.68;;;11.40;99.90;;;;;;4994363;28;20025;-86
2023/10/06 03:57:15;;;;;;;12.23;5.72;;;11.40;99.90;;;;;;4994245;28;20018;-85
2023/10/06 03:59:44;;;;;;;13.10;5.40;;;11.40;99.90;;;;;;5011394;28;20033;-86
2023/10/06 04:02:10;;;;;;;10.57;5.78;;;11.40;99.90;;;;;;5014658;28;20026;-86
2023/10/06 04:04:39;;;;;;;12.55;4.97;;;11.40;99.90;;;;;;4993551;28;20038;-85
2023/10/06 04:07:06;;;;;;;14.27;5.43;;;11.40;99.90;;;;;;4995006;28;20053;-86
2023/10/06 04:09:33;;;;;;;13.10;5.85;;;11.40;99.90;;;;;;4994472;28;20034;-86
2023/10/06 04:12:00;;;;;;;13.10;5.78;;;11.30;99.90;;;;;;5003778;28;20470;-86
2023/10/06 04:14:28;;;;;;;13.57;5.63;;;11.30;99.90;;;;;;4988385;28;20033;-86
2023/10/06 04:16:53;;;;;;;12.07;5.60;;;11.30;99.90;;;;;;4995386;28;20022;-86
2023/10/06 04:19:19;;;;;;;9.90;5.32;;;11.30;99.90;;;;;;4994795;28;20026;-86
2023/10/06 04:21:44;;;;;;;16.67;6.40;;;11.30;99.90;;;;;;4994976;28;20029;-86
2023/10/06 04:24:10;;;;;;;10.57;5.78;;;11.30;99.90;;;;;;4994606;28;20032;-86
2023/10/06 04:26:36;;;;;;;12.95;5.60;;;11.20;99.90;;;;;;4996158;28;20383;-86
2023/10/06 04:29:04;;;;;;;13.13;6.35;;;11.20;99.90;;;;;;4994431;28;20076;-86
2023/10/06 04:31:29;;;;;;;8.50;5.25;;;11.20;99.90;;;;;;4989089;28;20061;-86
2023/10/06 04:33:55;;;;;;;23.05;6.32;;;11.20;99.90;;;;;;4987030;28;20022;-85
2023/10/06 04:36:20;;;;;;;13.57;5.72;;;11.20;99.90;;;;;;4995761;28;20116;-87
2023/10/06 04:38:46;;;;;;;14.45;6.35;;;11.20;99.90;;;;;;5001497;28;20033;-86
2023/10/06 04:41:14;;;;;;;13.73;5.75;;;11.20;99.90;;;;;;5001495;28;20113;-86
2023/10/06 04:43:44;;;;;;;13.93;6.30;;;11.20;99.90;;;;;;4991203;28;20394;-86
2023/10/06 04:46:10;;;;;;;9.80;5.30;;;11.20;99.90;;;;;;4998277;28;20117;-86
2023/10/06 04:48:36;;;;;;;14.85;6.28;;;11.20;99.90;;;;;;4997615;28;20022;-86
2023/10/06 04:51:06;;;;;;;15.57;6.22;;;11.20;99.90;;;;;;4997697;28;20036;-86
2023/10/06 04:53:35;;;;;;;13.77;6.00;;;11.30;99.90;;;;;;4996811;28;20026;-86
2023/10/06 04:56:03;;;;;;;15.27;6.78;;;11.20;99.90;;;;;;4998235;28;20394;-86
2023/10/06 04:58:29;;;;;;;9.48;5.47;;;11.30;99.90;;;;;;4986470;28;20026;-86
2023/10/06 05:00:59;;;;;;;15.43;6.40;;;11.30;99.90;;;;;;4993162;28;20050;-86
2023/10/06 05:03:25;;;;;;;16.15;6.30;;;11.30;99.90;;;;;;4997845;28;20128;-85
2023/10/06 05:05:51;;;;;;;12.95;6.15;;;11.30;99.90;;;;;;4998310;28;20472;-86
2023/10/06 05:08:16;;;;;;;11.68;5.95;;;11.30;99.90;;;;;;4997381;28;20042;-86
2023/10/06 05:10:42;;;;;;;11.73;6.05;;;11.30;99.90;;;;;;4996548;28;20053;-87
2023/10/06 05:13:08;;;;;;;14.40;6.07;;;11.30;99.90;;;;;;4986404;28;20028;-86
2023/10/06 05:15:40;;;;;;;12.68;6.32;;;11.30;99.90;;;;;;5014753;28;20026;-86
2023/10/06 05:18:06;;;;;;;;;;;11.30;99.90;;;;;;4997908;28;20061;-86
2023/10/06 05:20:33;;;;;;;12.02;5.78;;;11.30;99.90;;;;;;5014683;28;19952;-87
2023/10/06 05:23:07;;;;;;;10.82;5.43;;;11.20;99.90;;;;;;4997560;28;20018;-87
2023/10/06 05:25:36;;;;;;;14.55;6.22;;;11.20;99.90;;;;;;5003077;28;20133;-86
2023/10/06 05:28:03;;;;;;;11.63;6.80;;;11.30;99.90;;;;;;4996311;28;20054;-87
2023/10/06 05:30:29;;;;;;;13.30;6.30;;;11.20;99.90;;;;;;5010663;28;20084;-87
2023/10/06 05:32:59;;;;;;;14.20;6.93;;;11.30;99.90;;;;;;4992953;28;20026;-86
2023/10/06 05:35:38;;;;;;;21.00;9.50;;;11.30;99.90;;;;;;4997148;28;20037;-86
2023/10/06 05:38:08;;;;;;;15.70;6.80;;;11.30;99.90;;;;;;4997557;28;20072;-86
2023/10/06 05:40:37;;;;;;;12.10;6.25;;;11.30;99.90;;;;;;5015413;28;20025;-86
2023/10/06 05:43:04;;;;;;;13.38;6.53;;;11.40;99.90;;;;;;4994113;28;20026;-86
2023/10/06 05:45:30;;;;;;;10.48;6.53;;;11.40;99.90;;;;;;5016247;28;20073;-86
2023/10/06 05:47:58;;;;;;;12.52;5.50;;;11.40;99.90;;;;;;4995408;28;20425;-86
2023/10/06 05:50:28;;;;;;;10.65;5.18;;;11.40;99.90;;;;;;4997262;28;20387;-86
2023/10/06 05:53:08;;;;;;;11.95;5.45;;;11.50;99.90;;;;;;4985884;28;20052;-86
2023/10/06 05:55:41;;;;;;;10.88;5.53;;;11.50;99.90;;;;;;4996628;28;20153;-86
2023/10/06 05:58:14;;;;;;;11.75;5.05;;;11.50;99.90;;;;;;4996823;28;20030;-86
2023/10/06 06:00:55;;;;;;;11.30;5.10;;;11.50;99.90;;;;;;4984225;28;20029;-86
2023/10/06 06:03:23;;;;;;;11.00;4.17;;;11.50;99.90;;;;;;4996252;28;20038;-86
2023/10/06 06:06:02;;;;;;;11.43;4.00;;;11.60;99.90;;;;;;4996608;28;20054;-86
2023/10/06 06:08:32;;;;;;;10.82;4.43;;;11.50;99.90;;;;;;5014423;28;20461;-86
2023/10/06 06:10:57;;;;;;;11.68;4.70;;;11.60;99.90;;;;;;5002371;28;20112;-86
2023/10/06 06:13:23;;;;;;;7.50;4.93;;;11.60;99.90;;;;;;4996341;28;20097;-87
2023/10/06 06:15:48;;;;;;;10.60;4.40;;;11.70;99.90;;;;;;5010220;28;20026;-86
2023/10/06 06:18:15;;;;;;;10.70;3.78;;;11.70;99.90;;;;;;4988399;28;20038;-87
2023/10/06 06:20:45;;;;;;;6.70;3.55;;;11.70;99.90;;;;;;4987702;28;20084;-87
2023/10/06 06:23:15;;;;;;;14.52;4.35;;;11.80;99.90;;;;;;5007593;28;20053;-88
2023/10/06 06:25:42;;;;;;;9.77;3.72;;;11.80;99.90;;;;;;4996442;28;20038;-88
2023/10/06 06:28:08;;;;;;;7.38;3.15;;;11.90;99.90;;;;;;4995416;28;20478;-87
2023/10/06 06:30:37;;;;;;;7.45;3.60;;;12.00;99.90;;;;;;5013379;28;20565;-88
2023/10/06 06:33:04;;;;;;;9.35;3.47;;;12.00;99.90;;;;;;4996976;28;20560;-88
2023/10/06 06:35:32;;;;;;;6.32;2.92;;;12.10;99.90;;;;;;5012498;28;20072;-88
2023/10/06 06:38:01;;;;;;;12.05;3.33;;;12.20;99.90;;;;;;4996671;28;20041;-87
2023/10/06 06:40:28;;;;;;;8.77;2.83;;;12.30;99.90;;;;;;5003284;28;20033;-88
2023/10/06 06:42:55;;;;;;;7.22;2.70;;;12.30;99.90;;;;;;4996439;28;20022;-87
2023/10/06 06:45:24;;;;;;;11.70;3.20;;;12.50;99.90;;;;;;4996232;28;20038;-88
2023/10/06 06:47:50;;;;;;;7.45;3.08;;;12.50;99.90;;;;;;5029040;28;20033;-87
2023/10/06 06:50:17;;;;;;;12.85;3.10;;;12.60;99.90;;;;;;4994129;28;20037;-88
2023/10/06 06:52:43;;;;;;;9.35;3.10;;;12.60;99.90;;;;;;5004112;28;20045;-88
2023/10/06 06:55:12;;;;;;;9.05;2.97;;;12.70;99.90;;;;;;4994937;28;20037;-88
2023/10/06 06:57:43;;;;;;;7.40;3.22;;;12.70;99.90;;;;;;4986218;28;20026;-88
2023/10/06 07:00:15;;;;;;;9.80;3.10;;;12.80;99.90;;;;;;5006908;28;20049;-88
2023/10/06 07:02:43;;;;;;;8.60;2.83;;;12.80;99.90;;;;;;4984433;28;20401;-87
2023/10/06 07:05:10;;;;;;;7.80;2.70;;;12.80;99.90;;;;;;4991091;28;20453;-87
2023/10/06 07:07:37;;;;;;;7.25;2.15;;;12.80;99.90;;;;;;5012531;28;20504;-87
2023/10/06 07:10:08;;;;;;;10.38;2.83;;;12.90;99.90;;;;;;4995759;28;20026;-86
2023/10/06 07:12:34;;;;;;;8.02;2.70;;;12.90;99.90;;;;;;4987098;28;20042;-87
2023/10/06 07:15:01;;;;;;;13.57;3.50;;;12.90;99.90;;;;;;4979390;28;20029;-87
2023/10/06 07:17:27;;;;;;;9.10;3.25;;;12.80;99.90;;;;;;4987612;28;20037;-87
2023/10/06 07:19:52;;;;;;;8.00;2.22;;;12.80;99.90;;;;;;5013178;28;20549;-86
2023/10/06 07:22:18;;;;;;;6.03;2.65;;;12.80;99.90;;;;;;4995128;28;20117;-86
2023/10/06 07:24:44;;;;;;;11.32;3.38;;;12.80;99.90;;;;;;4995715;28;20445;-87
2023/10/06 07:27:09;;;;;;;12.52;2.92;;;12.90;99.90;;;;;;4995112;28;20018;-86
2023/10/06 07:29:35;;;;;;;9.90;2.78;;;12.90;99.90;;;;;;4995548;28;20026;-86
2023/10/06 07:32:00;;;;;;;6.18;2.72;;;12.90;99.90;;;;;;4989478;28;20152;-87
2023/10/06 07:34:27;;;;;;;8.48;3.40;;;13.00;99.90;;;;;;4995119;28;20021;-87
2023/10/06 07:36:53;;;;;;;8.10;2.95;;;13.10;99.90;;;;;;4995140;28;20500;-87
2023/10/06 07:39:20;;;;;;;8.52;2.97;;;13.20;99.90;;;;;;5010643;28;20030;-87
2023/10/06 07:41:46;;;;;;;10.45;3.60;;;13.30;99.90;;;;;;4994840;28;20022;-87
2023/10/06 07:44:14;;;;;;;10.45;3.13;;;13.40;99.90;;;;;;5012544;28;20096;-87
2023/10/06 07:46:40;;;;;;;10.23;3.63;;;13.50;99.90;;;;;;4995369;28;20018;-87
2023/10/06 07:49:05;;;;;;;9.70;3.80;;;13.60;99.90;;;;;;4994831;28;20080;-86
2023/10/06 07:51:33;;;;;;;9.82;2.90;;;13.80;99.90;;;;;;4995046;28;20025;-87
2023/10/06 07:53:59;;;;;;;12.25;3.95;;;13.90;99.90;;;;;;4995284;28;20491;-87
2023/10/06 07:56:26;;;;;;;6.40;3.40;;;14.00;99.90;;;;;;4994826;28;20121;-86
2023/10/06 07:58:53;;;;;;;12.00;3.50;;;14.20;99.90;;;;;;4994902;28;20064;-86
2023/10/06 08:01:19;;;;;;;8.05;3.00;;;14.30;99.90;;;;;;4994568;28;20030;-87
2023/10/06 08:03:45;;;;;;;6.15;3.22;;;14.30;99.90;;;;;;4995180;28;20395;-87
2023/10/06 08:06:11;;;;;;;9.55;4.28;;;14.40;99.90;;;;;;4994242;28;20084;-86
2023/10/06 08:08:38;;;;;;;8.90;3.20;;;14.50;99.90;;;;;;4994983;28;20030;-86
2023/10/06 08:11:06;;;;;;;10.45;3.30;;;14.60;99.90;;;;;;4981135;28;20101;-87
2023/10/06 08:13:38;;;;;;;10.18;3.15;;;14.70;99.90;;;;;;4990921;28;20029;-86
2023/10/06 08:16:06;;;;;;;10.52;3.20;;;14.80;99.90;;;;;;4994802;28;20022;-86
2023/10/06 08:18:32;;;;;;;9.80;3.20;;;14.90;99.90;;;;;;5012140;28;20045;-86
2023/10/06 08:21:01;;;;;;;8.20;3.38;;;15.10;99.90;;;;;;4994878;28;20034;-86
2023/10/06 08:23:29;;;;;;;10.35;3.53;;;15.20;99.90;;;;;;4994247;28;20056;-86
2023/10/06 08:25:56;;;;;;;9.85;3.53;;;15.30;99.90;;;;;;4994414;28;20026;-86
2023/10/06 08:28:26;;;;;;;7.82;3.00;;;15.40;99.90;;;;;;4994225;28;20121;-86
2023/10/06 08:30:54;;;;;;;8.90;2.40;;;15.60;99.90;;;;;;4994493;28;20046;-86
2023/10/06 08:33:20;;;;;;;10.15;3.15;;;15.70;99.90;;;;;;4994062;28;20034;-86
2023/10/06 08:35:46;;;;;;;7.55;2.65;;;15.90;99.90;;;;;;4994344;28;20033;-86
2023/10/06 08:38:12;;;;;;;9.55;3.10;;;16.00;99.90;;;;;;4993944;28;20037;-87
2023/10/06 08:40:41;;;;;;;9.40;2.95;;;16.10;99.90;;;;;;4994352;28;20022;-86
2023/10/06 08:43:08;;;;;;;11.10;2.90;;;16.30;99.90;;;;;;4985715;28;20493;-86
2023/10/06 08:45:40;;;;;;;5.38;2.38;;;16.30;99.90;;;;;;5006478;28;20034;-86
2023/10/06 08:48:09;;;;;;;7.22;2.28;;;16.30;99.90;;;;;;4975591;28;20481;-87
2023/10/06 08:50:36;;;;;;;9.55;3.10;;;16.40;99.90;;;;;;4994507;28;20026;-87
2023/10/06 08:53:05;;;;;;;7.65;2.58;;;16.50;99.90;;;;;;5022086;28;20118;-86
2023/10/06 08:55:31;;;;;;;10.75;3.08;;;16.60;99.90;;;;;;4990577;28;20026;-87
2023/10/06 08:58:00;;;;;;;10.50;2.88;;;16.60;99.90;;;;;;4994210;28;20041;-86
2023/10/06 09:00:32;;;;;;;9.27;3.10;;;16.60;99.90;;;;;;4994015;28;20497;-86
2023/10/06 09:03:11;;;;;;;7.80;2.97;;;16.60;99.90;;;;;;4994632;28;20100;-88
2023/10/06 09:05:40;;;;;;;7.55;2.65;;;16.70;99.90;;;;;;4994140;28;20104;-86
2023/10/06 09:08:07;;;;;;;10.38;2.88;;;16.70;99.90;;;;;;5011522;28;20026;-88
2023/10/06 09:10:54;;;;;;;8.98;2.72;;;16.70;99.90;;;;;;4991397;28;20030;-87
2023/10/06 09:13:21;;;;;;;8.07;3.13;;;16.80;99.90;;;;;;4990945;28;20454;-87
2023/10/06 09:16:03;;;;;;;7.75;3.05;;;16.90;99.90;;;;;;4991961;28;20389;-87
2023/10/06 09:18:30;;;;;;;;;;;17.00;99.90;;;;;;4997944;28;20053;-87
2023/10/06 09:21:10;;;;;;;12.10;3.60;;;17.00;99.90;;;;;;4987169;28;20366;-87
2023/10/06 09:23:36;;;;;;;12.02;3.05;;;17.00;99.90;;;;;;4987717;28;20080;-87
2023/10/06 09:26:07;;;;;;;7.95;2.72;;;17.10;99.90;;;;;;4991231;28;20034;-86
2023/10/06 09:28:33;;;;;;;10.77;3.20;;;17.20;99.90;;;;;;5009355;28;20026;-86
2023/10/06 09:31:05;;;;;;;12.68;3.08;;;17.30;99.90;;;;;;4997153;28;20096;-86
2023/10/06 09:33:37;;;;;;;6.88;2.80;;;17.40;99.90;;;;;;4997520;28;20022;-87
2023/10/06 09:36:11;;;;;;;11.52;3.03;;;17.50;99.90;;;;;;4997298;28;20029;-86
2023/10/06 09:38:37;;;;;;;14.57;3.08;;;17.60;99.90;;;;;;4997295;28;20510;-86
2023/10/06 09:41:05;;;;;;;9.02;2.88;;;17.70;99.90;;;;;;4997266;28;20108;-86
2023/10/06 09:43:34;;;;;;;8.30;3.25;;;17.70;99.90;;;;;;4997267;28;20030;-86
2023/10/06 09:46:11;;;;;;;8.95;3.15;;;17.80;99.90;;;;;;4996988;28;20065;-86
2023/10/06 09:48:39;;;;;;;6.82;2.95;;;17.90;99.90;;;;;;4997070;28;20214;-86
2023/10/06 09:51:07;;;;;;;7.80;3.15;;;17.80;99.90;;;;;;4994800;28;20057;-87
2023/10/06 09:53:38;;;;;;;9.32;2.90;;;17.70;99.90;;;;;;4983001;28;20018;-86
2023/10/06 09:56:06;;;;;;;9.32;3.10;;;17.60;99.90;;;;;;4997000;28;20030;-86
2023/10/06 09:58:32;;;;;;;8.50;2.78;;;17.60;99.90;;;;;;4996937;28;20022;-86
2023/10/06 10:01:00;;;;;;;8.93;3.20;;;17.60;99.90;;;;;;4996951;28;20394;-86
2023/10/06 10:03:27;;;;;;;7.85;2.65;;;17.60;99.90;;;;;;4996236;28;20018;-86
2023/10/06 10:05:56;;;;;;;8.23;2.67;;;17.60;99.90;;;;;;4996978;28;20074;-86
2023/10/06 10:08:23;;;;;;;6.93;2.42;;;17.70;99.90;;;;;;4996536;28;20022;-86
2023/10/06 10:10:52;;;;;;;9.82;2.95;;;17.80;99.90;;;;;;4996788;28;20029;-86
2023/10/06 10:13:54;;;;;;;7.68;2.17;;;17.90;99.90;;;;;;4996323;28;20054;-86
2023/10/06 10:16:49;;;;;;;10.98;2.72;;;18.00;99.90;;;;;;4996364;28;20037;-86
2023/10/06 10:19:18;;;;;;;4.97;1.67;;;18.20;99.90;;;;;;4986329;28;20022;-86
2023/10/06 10:21:44;;;;;;;7.32;1.52;;;18.40;99.90;;;;;;4996394;28;20029;-86
2023/10/06 10:24:13;;;;;;;7.22;1.77;;;18.70;99.90;;;;;;4996242;28;20065;-86
2023/10/06 10:26:39;;;;;;;7.43;2.50;;;18.80;99.90;;;;;;5012775;28;20033;-86
2023/10/06 10:29:17;;;;;;;6.00;1.70;;;18.80;99.90;;;;;;4995979;28;20108;-86
2023/10/06 10:31:57;;;;;;;8.55;2.08;;;18.80;99.90;;;;;;4996065;28;20533;-86
2023/10/06 10:34:23;;;;;;;9.68;1.85;;;18.80;99.90;;;;;;4995450;28;20029;-86
2023/10/06 10:37:12;;;;;;;6.00;1.85;;;18.80;99.90;;;;;;4996010;28;20649;-86
2023/10/06 10:39:55;;;;;;;8.48;1.65;;;18.80;99.90;;;;;;4987788;28;20515;-85
2023/10/06 10:42:36;;;;;;;5.88;1.98;;;18.90;99.90;;;;;;4995887;28;20026;-87
2023/10/06 10:45:34;;;;;;;6.80;2.05;;;19.00;99.90;;;;;;4988435;28;20038;-86
2023/10/06 10:47:59;;;;;;;7.63;2.03;;;19.30;99.90;;;;;;4991785;28;20030;-86
2023/10/06 10:51:10;;;;;;;5.15;1.75;;;19.50;99.90;;;;;;4995390;28;20539;-87
2023/10/06 10:53:44;;;;;;;10.65;1.88;;;19.70;99.90;;;;;;4996054;28;20053;-86
2023/10/06 10:56:34;;;;;;;5.97;2.22;;;19.80;99.90;;;;;;4995621;28;20389;-87
2023/10/06 10:59:00;;;;;;;7.55;1.75;;;19.90;99.90;;;;;;4992549;28;20034;-87
2023/10/06 11:01:31;;;;;;;7.03;1.40;;;20.10;99.90;;;;;;4994295;28;20025;-88
2023/10/06 11:04:21;;;;;;;10.75;1.75;;;20.30;99.90;;;;;;4990712;28;20763;-86
2023/10/06 11:06:49;;;;;;;9.38;1.70;;;20.30;99.90;;;;;;4995977;28;20036;-86
2023/10/06 11:09:25;;;;;;;6.40;2.05;;;20.00;99.90;;;;;;4995595;28;20024;-87
2023/10/06 11:11:55;;;;;;;8.82;1.63;;;19.90;99.90;;;;;;4990370;28;20037;-86
2023/10/06 11:14:22;;;;;;;6.43;2.05;;;19.90;99.90;;;;;;4994991;28;20026;-86
2023/10/06 11:16:47;;;;;;;6.72;1.95;;;19.90;99.90;;;;;;4995611;28;20092;-87
2023/10/06 11:19:15;;;;;;;8.07;2.08;;;19.90;99.90;;;;;;4995204;28;20172;-86
2023/10/06 11:21:44;;;;;;;6.90;1.70;;;19.90;99.90;;;;;;4995593;28;20168;-87
2023/10/06 11:24:10;;;;;;;7.53;1.58;;;19.80;99.90;;;;;;4995014;28;20036;-87
2023/10/06 11:26:36;;;;;;;6.80;1.92;;;19.70;99.90;;;;;;4995320;28;20034;-87
2023/10/06 11:29:02;;;;;;;6.47;1.67;;;19.70;99.90;;;;;;4995082;28;20033;-87
2023/10/06 11:31:29;;;;;;;5.97;1.92;;;19.70;99.90;;;;;;4994684;28;20111;-84
2023/10/06 11:33:56;;;;;;;6.60;2.03;;;19.70;99.90;;;;;;4995360;28;20022;-87
2023/10/06 11:36:22;;;;;;;9.82;1.90;;;19.70;99.90;;;;;;4994422;28;20029;-87
2023/10/06 11:38:48;;;;;;;8.07;1.90;;;19.70;99.90;;;;;;4994857;28;20033;-86
2023/10/06 11:41:24;;;;;;;9.13;1.80;;;19.80;99.90;;;;;;4995143;28;20026;-86
2023/10/06 11:43:54;;;;;;;8.05;2.10;;;19.80;99.90;;;;;;4990084;28;20119;-86
2023/10/06 11:46:20;;;;;;;6.10;1.75;;;19.80;99.90;;;;;;4994247;28;20058;-86
2023/10/06 11:48:46;;;;;;;4.72;1.58;;;19.80;99.90;;;;;;4995331;28;20127;-86
2023/10/06 11:51:15;;;;;;;7.45;1.75;;;19.70;99.90;;;;;;5012208;28;20026;-86
2023/10/06 11:53:41;;;;;;;5.85;1.58;;;19.70;99.90;;;;;;4995096;28;20030;-86
2023/10/06 11:56:15;;;;;;;5.07;1.60;;;19.60;99.90;;;;;;4994169;28;20072;-86
2023/10/06 11:58:41;;;;;;;5.90;1.90;;;19.60;99.90;;;;;;4994610;28;20482;-87
2023/10/06 12:01:28;;;;;;;7.32;2.08;;;19.70;99.90;;;;;;4994645;28;20025;-86
2023/10/06 12:03:59;;;;;;;7.65;2.15;;;19.70;99.90;;;;;;4987685;28;20021;-86
2023/10/06 12:06:36;;;;;;;5.65;1.45;;;19.70;99.90;;;;;;4991021;28;20057;-87
2023/10/06 12:09:02;;;;;;;4.72;1.38;;;19.70;99.90;;;;;;4995006;28;20117;-87
2023/10/06 12:11:28;;;;;;;5.07;1.75;;;19.80;99.90;;;;;;5003753;28;20030;-87
2023/10/06 12:13:53;;;;;;;7.60;2.67;;;19.90;99.90;;;;;;4994891;28;20022;-86
2023/10/06 12:16:19;;;;;;;7.45;2.25;;;20.00;99.90;;;;;;4993994;28;20132;-86
2023/10/06 12:18:46;;;;;;;5.38;1.60;;;20.10;99.90;;;;;;4994753;28;20018;-87
2023/10/06 12:21:14;;;;;;;7.97;2.55;;;20.20;99.90;;;;;;4994379;28;20022;-86
2023/10/06 12:23:43;;;;;;;13.52;1.98;;;20.20;99.90;;;;;;4994422;28;20030;-86
2023/10/06 12:26:08;;;;;;;6.55;1.70;;;20.10;99.90;;;;;;4994316;28;20664;-86
2023/10/06 12:28:34;;;;;;;8.07;2.17;;;20.10;99.90;;;;;;4994455;28;20105;-86
2023/10/06 12:31:02;;;;;;;11.40;1.75;;;20.00;99.90;;;;;;4994641;28;20464;-86
2023/10/06 12:33:28;;;;;;;7.90;2.42;;;20.00;99.90;;;;;;4994256;28;20088;-86
2023/10/06 12:35:53;;;;;;;8.90;2.67;;;20.10;99.90;;;;;;4994389;28;20026;-86
2023/10/06 12:38:19;;;;;;;10.68;2.03;;;20.10;99.90;;;;;;4993816;28;20437;-87
2023/10/06 12:40:48;;;;;;;7.28;2.30;;;19.90;99.90;;;;;;5012042;28;20172;-86
2023/10/06 12:43:14;;;;;;;7.22;2.47;;;19.90;99.90;;;;;;4983420;28;20022;-86
2023/10/06 12:45:40;;;;;;;6.72;1.98;;;20.00;99.90;;;;;;4994272;28;20121;-86
2023/10/06 12:48:07;;;;;;;6.55;2.00;;;20.10;99.90;;;;;;4982997;28;20190;-87
2023/10/06 12:50:40;;;;;;;7.35;2.30;;;20.20;99.90;;;;;;5006069;28;20117;-87
2023/10/06 12:53:08;;;;;;;8.82;1.83;;;20.30;99.90;;;;;;4993094;28;20053;-87
2023/10/06 12:55:33;;;;;;;8.15;2.17;;;20.40;99.90;;;;;;4994009;28;20112;-87
2023/10/06 12:57:59;;;;;;;7.18;2.30;;;20.60;99.90;;;;;;4995713;28;20117;-87
2023/10/06 13:00:24;;;;;;;4.47;1.75;;;20.60;99.90;;;;;;4997816;28;20026;-87
2023/10/06 13:02:50;;;;;;;7.85;2.15;;;20.60;99.90;;;;;;4998298;28;20022;-87
2023/10/06 13:05:19;;;;;;;10.30;2.88;;;20.60;99.90;;;;;;5011508;28;20109;-86
2023/10/06 13:07:48;;;;;;;8.32;2.45;;;20.50;99.90;;;;;;4978613;28;20034;-87
2023/10/06 13:10:16;;;;;;;5.18;1.73;;;20.40;99.90;;;;;;4992923;28;20056;-86
2023/10/06 13:12:42;;;;;;;9.50;2.47;;;20.40;99.90;;;;;;4998496;28;20108;-87
2023/10/06 13:15:13;;;;;;;7.57;2.45;;;20.60;99.90;;;;;;5014955;28;20026;-87
2023/10/06 13:17:42;;;;;;;6.88;1.70;;;20.70;99.90;;;;;;5015191;28;20033;-86
2023/10/06 13:20:09;;;;;;;7.53;1.88;;;21.00;99.90;;;;;;4997533;28;20068;-88
2023/10/06 13:22:38;;;;;;;8.38;2.40;;;21.00;99.90;;;;;;5015024;28;20099;-86
2023/10/06 13:25:06;;;;;;;7.35;2.38;;;20.90;99.90;;;;;;4997851;28;20187;-87
2023/10/06 13:27:32;;;;;;;6.63;2.20;;;20.80;99.90;;;;;;4998188;28;20032;-87
2023/10/06 13:29:57;;;;;;;8.02;2.50;;;20.70;99.90;;;;;;4997594;28;20480;-87
2023/10/06 13:32:23;;;;;;;5.22;2.00;;;20.60;99.90;;;;;;4997461;28;20130;-87
2023/10/06 13:34:50;;;;;;;9.27;1.92;;;20.60;99.90;;;;;;5014831;28;20029;-86
2023/10/06 13:37:15;;;;;;;7.53;1.85;;;20.60;99.90;;;;;;4997312;28;20017;-87
2023/10/06 13:39:44;;;;;;;7.50;1.48;;;20.60;99.90;;;;;;4997404;28;20080;-86
2023/10/06 13:42:15;;;;;;;6.70;2.40;;;20.80;99.90;;;;;;4997287;28;20113;-87
2023/10/06 13:44:41;;;;;;;6.25;1.52;;;20.80;99.90;;;;;;4997336;28;20030;-87
2023/10/06 13:47:07;;;;;;;9.25;2.30;;;20.90;99.90;;;;;;5029642;28;20513;-87
2023/10/06 13:49:32;;;;;;;6.15;2.05;;;20.90;99.90;;;;;;4997526;28;20029;-87
2023/10/06 13:51:59;;;;;;;7.05;1.90;;;20.90;99.90;;;;;;4997427;28;20018;-86
2023/10/06 13:54:25;;;;;;;8.25;2.20;;;20.80;99.90;;;;;;4996846;28;20092;-86
2023/10/06 13:56:50;;;;;;;5.93;1.63;;;20.90;99.90;;;;;;4997189;28;20022;-86
2023/10/06 13:59:17;;;;;;;8.15;2.15;;;20.90;99.90;;;;;;4996806;28;20034;-87